Portada
METAR-TAF:

METAR-TAF

Aeroports :

Chanute, Kansas, Estats Units d'Amèrica

latitud: 37-40-13N, longitud: 095-29-03W, altitud: 305 m

Observació

L'informe es va fer fa 54 minuts, a les 05:52 UTC
Vent 4 kt del Sud-Est
Temperatura 23°C
Humitat 78%
Pressió 1023 hPa
Visibilitat: 16.1 km
Cel clar

METAR: KCNU 200552Z AUTO 13004KT 10SM CLR 23/19 A3020 RMK AO2 SLP214 T02280194 10306 20228 403280228 51009

Hora: 01:46 (06:46 UTC)

Pronòstic

L'informe es va fer fa 1 hora i 18 minuts, a les 05:28 UTC
Pronòstic vàlid del 20 a les 06 UTC al 21 a les 06 UTC
Vent 3 kt amb direcció variable
Visibilitat: 10 km
Escasses núvols a una alçada de 14000 ft

TAF: KCNU 200528Z 2006/2106 VRB03KT P6SM FEW140

Observacions i pronòstics meteorològics de més de 4000 aeroports (METAR i TAF).

Les estacions disponibles són els punts grocs i vermells al mapa.

Posi el ratolí al punt desitjat per veure el nom de l'estació.

Feu clic per veure les observacions i els pronòstics meteorològics.

Per canviar el mapa: feu clic els botons verds amb una creu de color negre per apropar; al botó verd amb un guió per allunyar la imatge; o en les fletxes verdes per a mapes adjacents.


METAR-TAF: